Detalii statie TARCEA AGRO TARCEA [0000197E]

Toti senzorii

Date Temperatura solului [C]Precipitatii [mm]Voltaj baterie [mV]Leaf Wetness [Min]HC Air temperature [C]HC Relative humidity [%]Punctul de roua [C]
medieminmaxsumaultimatimpmedieminmaxmediemediemin
2019-10-19 23:00:00 0 6834 12.39 11.88 12.63 80.25 8.9 8.1
2019-10-20 00:00:00 0 6834 11.45 10.91 12.24 80.83 8.1 7.5
2019-10-20 01:00:00 0 6806 10.97 10.61 11.5 85.51 8.5 8
2019-10-20 02:00:00 0 6816 10.44 9.73 11.16 89.12 8.6 7.8
2019-10-20 03:00:00 0 6806 9.78 9.44 10.04 93.21 8.6 8
2019-10-20 04:00:00 0 6806 8.48 7.77 9.37 95.92 7.7 7.1
2019-10-20 05:00:00 0 6806 8.69 8.33 9.21 98.03 8.3 7.8
2019-10-20 06:00:00 0 6786 8.88 8.14 9.45 99.62 8.7 7.8
2019-10-20 07:00:00 0 6796 8.27 8.08 8.55 99.08 8 7.7
2019-10-20 08:00:00 0 6826 8.07 7.6 8.69 99.96 8 7.6
2019-10-20 09:00:00 0 7216 10.65 8.85 12.63 95.28 9.7 8.8
2019-10-20 10:00:00 0 7294 15.11 12.91 17.34 78.53 11.2 10.7
2019-10-20 11:00:00 0 7284 19.79 17.63 21.91 59.9 11.5 11.2
2019-10-20 12:00:00 0 7206 23.64 22.6 24.73 43.8 10.3 9
2019-10-20 13:00:00 0 7284 24.8 24.48 25.2 37.15 9 8
2019-10-20 14:00:00 0 7186 25.18 25.03 25.41 37.26 9.3 9
2019-10-20 15:00:00 0 7274 25.48 25.23 25.73 36.95 9.5 8.9
2019-10-20 16:00:00 0 7284 25.34 25.05 25.73 36.33 9.1 8.5
2019-10-20 17:00:00 0 6982 23.98 22.29 25.03 40.33 9.4 9
2019-10-20 18:00:00 0 6922 20.65 19.12 22.15 48.84 9.2 9.1
2019-10-20 19:00:00 0 6894 17 15.02 19.16 58.83 8.6 8.2
2019-10-20 20:00:00 0 6854 14.51 13.89 14.88 69.27 8.7 8.3
2019-10-20 21:00:00 0 6844 13.39 12.66 14.18 75.03 8.9 8.5
2019-10-20 22:00:00 0 6834 12.58 12.31 12.94 77.13 8.5 8.2
2019-10-20 23:00:00 0 6826 11.96 11.75 12.31 78.88 8.2 7.8
2019-10-21 00:00:00 0 6826 11.41 10.31 12.07 82.45 8.4 7.5
2019-10-21 01:00:00 0 6816 10.73 10.12 11.15 84.76 8.1 7.3
2019-10-21 02:00:00 0 6816 10.47 10.17 11.07 86.2 8.1 7.7
2019-10-21 03:00:00 0 6806 9.94 9.07 10.63 88.95 8 7.3
2019-10-21 04:00:00 0 6796 9.25 8.59 9.75 91.27 7.7 7.1
2019-10-21 05:00:00 0 6786 8.47 7.99 8.76 93.64 7.3 7.1
2019-10-21 06:00:00 0 6796 7.81 7.58 8.18 96.33 7.1 6.6
2019-10-21 07:00:00 0 6786 7.79 7.35 8.08 98.27 7.4 6.7
2019-10-21 08:00:00 0 6796 8.51 7.32 9.36 97.04 7.9 6.7
2019-10-21 09:00:00 0 7138 12.28 9.79 14.84 85.62 9.7 8.7
2019-10-21 10:00:00 0 7294 17.67 15.24 20.03 62.52 10.1 10
2019-10-21 11:00:00 0 7284 21.85 20.79 23.27 48.38 10.2 9.9